Time;durP1;ratioP1;P1;durP2;ratioP2;P2;SDS_P1;SDS_P2;PMS_P1;PMS_P2;Temp;Humidity;BMP_temperature;BMP_pressure;BME280_temperature;BME280_humidity;BME280_pressure;Samples;Min_cycle;Max_cycle;Signal;HPM_P1;HPM_P2
2022/12/14 00:00:40;;;;;;;5.07;3.08;;;0.10;93.50;;;;;;5041144;28;20080;-71
2022/12/14 00:03:07;;;;;;;6.07;3.08;;;0.10;93.90;;;;;;5031168;28;20029;-71
2022/12/14 00:05:33;;;;;;;8.90;3.78;;;0.20;92.10;;;;;;5027114;28;20099;-71
2022/12/14 00:07:58;;;;;;;6.10;2.88;;;0.30;91.90;;;;;;5036114;28;20036;-71
2022/12/14 00:10:24;;;;;;;8.25;2.80;;;0.30;92.60;;;;;;5029937;28;20421;-69
2022/12/14 00:12:50;;;;;;;5.45;2.83;;;0.30;91.80;;;;;;5045049;28;20522;-71
2022/12/14 00:15:15;;;;;;;10.27;3.65;;;0.40;92.40;;;;;;5033172;28;20386;-71
2022/12/14 00:17:41;;;;;;;8.02;3.25;;;0.30;92.00;;;;;;5040835;28;20056;-71
2022/12/14 00:20:07;;;;;;;4.28;2.15;;;0.30;92.10;;;;;;5032747;28;20036;-71
2022/12/14 00:22:33;;;;;;;6.75;3.42;;;0.40;92.40;;;;;;5040500;28;20033;-71
2022/12/14 00:24:59;;;;;;;6.93;3.20;;;0.40;92.10;;;;;;5049455;28;20041;-70
2022/12/14 00:27:25;;;;;;;6.70;3.35;;;0.40;91.90;;;;;;5038043;28;20037;-71
2022/12/14 00:29:51;;;;;;;6.25;3.42;;;0.30;91.50;;;;;;5039825;28;20576;-71
2022/12/14 00:32:17;;;;;;;5.82;2.88;;;0.30;91.50;;;;;;5037318;28;20061;-71
2022/12/14 00:34:43;;;;;;;6.30;3.20;;;0.30;91.60;;;;;;5032136;28;20026;-71
2022/12/14 00:37:08;;;;;;;7.28;3.05;;;0.30;91.60;;;;;;5039554;28;20035;-72
2022/12/14 00:39:34;;;;;;;6.72;3.50;;;0.30;91.50;;;;;;5042018;28;20032;-71
2022/12/14 00:42:00;;;;;;;7.85;3.80;;;0.30;91.50;;;;;;5031151;28;20068;-70
2022/12/14 00:44:25;;;;;;;6.28;3.38;;;0.40;91.80;;;;;;5041416;28;20040;-70
2022/12/14 00:46:51;;;;;;;7.15;3.83;;;0.30;92.70;;;;;;5032469;28;20052;-70
2022/12/14 00:49:16;;;;;;;8.45;3.63;;;0.30;93.00;;;;;;5040164;28;20045;-71
2022/12/14 00:51:42;;;;;;;9.15;3.83;;;0.40;93.50;;;;;;5034737;28;20040;-71
2022/12/14 00:54:08;;;;;;;8.10;3.47;;;0.40;93.80;;;;;;5037018;28;20036;-71
2022/12/14 00:56:34;;;;;;;8.05;4.15;;;0.40;93.90;;;;;;5030833;28;20552;-71
2022/12/14 00:58:59;;;;;;;8.10;4.05;;;0.40;94.20;;;;;;5040707;28;20045;-70
2022/12/14 01:01:25;;;;;;;8.05;3.78;;;0.40;94.10;;;;;;5037298;28;20083;-71
2022/12/14 01:04:15;;;;;;;10.30;3.70;;;0.40;94.10;;;;;;5038884;28;20041;-71
2022/12/14 01:06:36;;;;;;;7.60;3.67;;;0.30;94.20;;;;;;5034627;28;20034;-71
2022/12/14 01:09:02;;;;;;;9.20;3.40;;;0.30;94.50;;;;;;5033793;28;20109;-71
2022/12/14 01:11:28;;;;;;;8.25;2.38;;;0.30;94.40;;;;;;5038070;28;20033;-71
2022/12/14 01:13:54;;;;;;;5.75;3.03;;;0.30;93.90;;;;;;5035071;28;20033;-71
2022/12/14 01:16:20;;;;;;;6.35;3.25;;;0.10;93.70;;;;;;5037492;28;20029;-70
2022/12/14 01:18:46;;;;;;;6.35;3.80;;;0.10;94.10;;;;;;5048721;28;20024;-71
2022/12/14 01:21:22;;;;;;;7.55;2.97;;;0.10;94.80;;;;;;5029233;28;20104;-71
2022/12/14 01:23:52;;;;;;;7.88;3.30;;;0.20;93.80;;;;;;5036287;28;20134;-71
2022/12/14 01:26:18;;;;;;;6.38;3.25;;;0.20;93.00;;;;;;5032394;28;20030;-70
2022/12/14 01:28:46;;;;;;;5.53;3.03;;;0.20;93.00;;;;;;5040303;28;20036;-71
2022/12/14 01:31:16;;;;;;;6.65;3.40;;;0.20;93.80;;;;;;5037265;28;20063;-71
2022/12/14 01:33:43;;;;;;;7.80;3.03;;;0.10;94.30;;;;;;5041061;28;20033;-70
2022/12/14 01:36:12;;;;;;;6.20;3.30;;;0.20;92.70;;;;;;5045688;28;20104;-71
2022/12/14 01:38:37;;;;;;;6.32;2.80;;;0.20;93.60;;;;;;5035618;28;20031;-71
2022/12/14 01:41:04;;;;;;;7.40;2.90;;;0.30;92.80;;;;;;5043754;28;20421;-71
2022/12/14 01:43:53;;;;;;;6.55;2.88;;;0.20;93.60;;;;;;5041241;28;20030;-71
2022/12/14 01:46:42;;;;;;;5.60;2.63;;;0.20;93.80;;;;;;5037641;28;20037;-71
2022/12/14 01:49:36;;;;;;;7.78;3.00;;;0.20;94.60;;;;;;5029986;28;20090;-71
2022/12/14 01:52:26;;;;;;;7.05;3.03;;;0.20;95.30;;;;;;5045489;28;20498;-71
2022/12/14 01:55:07;;;;;;;6.47;3.28;;;0.10;95.00;;;;;;5040429;28;20037;-70
2022/12/14 01:57:43;;;;;;;5.53;2.75;;;0.20;93.80;;;;;;5034114;28;20037;-71
2022/12/14 02:00:15;;;;;;;8.48;3.55;;;0.20;94.10;;;;;;5025640;28;20104;-71
2022/12/14 02:02:47;;;;;;;5.43;3.17;;;0.30;93.70;;;;;;5039694;28;20422;-71
2022/12/14 02:05:15;;;;;;;8.02;2.95;;;0.30;92.50;;;;;;5041001;28;20515;-71
2022/12/14 02:07:43;;;;;;;8.75;3.30;;;0.20;93.20;;;;;;5037089;28;20028;-71
2022/12/14 02:10:09;;;;;;;7.68;3.13;;;0.20;93.20;;;;;;5041163;28;20487;-70
2022/12/14 02:12:42;;;;;;;7.30;3.25;;;0.30;93.80;;;;;;5036890;28;20037;-71
2022/12/14 02:15:09;;;;;;;8.90;4.47;;;0.20;94.40;;;;;;5041326;28;20547;-70
2022/12/14 02:17:34;;;;;;;8.90;4.75;;;0.10;94.60;;;;;;5032064;28;20064;-71
2022/12/14 02:20:02;;;;;;;7.55;4.60;;;0.00;94.40;;;;;;5040329;28;20068;-71
2022/12/14 02:23:09;;;;;;;9.63;4.70;;;0.00;94.30;;;;;;5048874;28;20021;-71
2022/12/14 02:25:54;;;;;;;10.80;4.88;;;0.00;94.30;;;;;;5031209;28;20038;-71
2022/12/14 02:28:36;;;;;;;;;;;0.00;94.20;;;;;;5029023;28;20030;-71
2022/12/14 02:31:30;;;;;;;9.38;4.88;;;0.10;94.70;;;;;;5032396;28;19909;-71
2022/12/14 02:34:23;;;;;;;10.45;4.55;;;0.10;94.70;;;;;;5029064;28;20083;-71
2022/12/14 02:36:56;;;;;;;7.03;3.97;;;0.10;94.80;;;;;;5031375;28;20033;-71
2022/12/14 02:39:27;;;;;;;10.48;4.13;;;0.10;95.10;;;;;;5045342;28;20025;-71
2022/12/14 02:41:59;;;;;;;11.25;4.40;;;0.10;95.50;;;;;;5033777;28;20036;-71
2022/12/14 02:44:24;;;;;;;8.23;3.65;;;0.00;95.40;;;;;;5046818;28;20486;-72
2022/12/14 02:46:50;;;;;;;10.48;4.32;;;0.00;95.80;;;;;;5047383;28;20057;-71
2022/12/14 02:49:35;;;;;;;6.88;3.83;;;0.00;95.00;;;;;;5037988;28;20356;-71
2022/12/14 02:52:21;;;;;;;6.22;3.40;;;0.10;95.40;;;;;;5031461;28;20059;-71
2022/12/14 02:55:16;;;;;;;8.93;4.90;;;0.00;95.20;;;;;;5032866;28;20108;-71
2022/12/14 02:58:09;;;;;;;11.13;4.53;;;0.00;95.30;;;;;;5018228;28;20135;-70
2022/12/14 03:00:36;;;;;;;8.85;4.03;;;-0.10;94.50;;;;;;5033548;28;20065;-71
2022/12/14 03:03:04;;;;;;;10.18;4.43;;;0.10;94.90;;;;;;5029933;28;20114;-71
2022/12/14 03:05:30;;;;;;;9.10;4.70;;;0.10;94.80;;;;;;5042112;28;20041;-71
2022/12/14 03:08:01;;;;;;;9.40;4.28;;;0.10;94.60;;;;;;5039193;28;20053;-71
2022/12/14 03:11:03;;;;;;;7.68;3.97;;;0.00;95.10;;;;;;5027529;28;20025;-71
2022/12/14 03:13:29;;;;;;;8.40;3.08;;;0.10;94.90;;;;;;5034083;28;20083;-71
2022/12/14 03:16:13;;;;;;;7.95;3.70;;;0.10;93.20;;;;;;5042544;28;20033;-71
2022/12/14 03:19:01;;;;;;;5.90;3.35;;;0.20;93.40;;;;;;5039558;28;20079;-71
2022/12/14 03:21:32;;;;;;;5.32;2.92;;;0.20;92.90;;;;;;5043735;28;20032;-71
2022/12/14 03:24:03;;;;;;;5.78;3.25;;;0.20;93.40;;;;;;5032192;28;20552;-70
2022/12/14 03:26:52;;;;;;;8.00;3.15;;;0.20;94.00;;;;;;5030690;28;20037;-71
2022/12/14 03:29:24;;;;;;;7.10;3.45;;;0.30;93.20;;;;;;5039807;28;20128;-70
2022/12/14 03:31:57;;;;;;;7.97;3.80;;;0.40;93.10;;;;;;5033869;28;20029;-71
2022/12/14 03:34:28;;;;;;;6.80;3.13;;;0.30;92.30;;;;;;5041320;28;20047;-71
2022/12/14 03:37:18;;;;;;;12.55;3.50;;;0.30;92.80;;;;;;5036109;28;20036;-72
2022/12/14 03:39:45;;;;;;;5.20;2.83;;;0.30;93.20;;;;;;5031503;28;20025;-71
2022/12/14 03:42:18;;;;;;;7.50;3.42;;;0.40;93.10;;;;;;5035810;28;20029;-71
2022/12/14 03:44:46;;;;;;;6.78;3.13;;;0.40;92.90;;;;;;5042761;28;20041;-71
2022/12/14 03:47:33;;;;;;;6.10;3.20;;;0.40;94.50;;;;;;5045066;28;20049;-71
2022/12/14 03:50:07;;;;;;;5.15;2.80;;;0.40;94.40;;;;;;5048297;28;20140;-71
2022/12/14 03:53:12;;;;;;;6.15;2.80;;;0.40;92.50;;;;;;5032322;28;20037;-71
2022/12/14 03:56:15;;;;;;;7.10;2.80;;;0.40;92.10;;;;;;5034599;28;20180;-71
2022/12/14 03:58:59;;;;;;;7.03;3.40;;;0.50;92.80;;;;;;5046913;28;20632;-71
2022/12/14 04:01:39;;;;;;;7.32;4.25;;;0.30;93.80;;;;;;5032044;28;20057;-71
2022/12/14 04:04:08;;;;;;;12.07;5.50;;;0.20;94.40;;;;;;5037651;28;20595;-70
2022/12/14 04:06:49;;;;;;;7.38;3.47;;;0.10;94.60;;;;;;5041359;28;20025;-70
2022/12/14 04:09:14;;;;;;;7.05;4.25;;;0.20;93.90;;;;;;5044033;28;20120;-70
2022/12/14 04:20:26;;;;;;;7.43;2.67;;;0.40;93.70;;;;;;5028537;28;20129;-70
2022/12/14 04:22:59;;;;;;;9.00;3.72;;;0.20;93.00;;;;;;5042225;28;20037;-71
2022/12/14 04:31:12;;;;;;;8.63;3.30;;;0.50;92.80;;;;;;5032674;28;20171;-71
2022/12/14 04:33:47;;;;;;;7.50;3.33;;;0.40;93.10;;;;;;5035909;28;20043;-71
2022/12/14 04:36:49;;;;;;;7.68;3.13;;;0.50;92.80;;;;;;5045963;28;20051;-71
2022/12/14 04:39:29;;;;;;;5.25;2.92;;;0.60;92.20;;;;;;5036542;28;20482;-71
2022/12/14 04:41:58;;;;;;;8.10;3.33;;;0.60;92.10;;;;;;5031933;28;20573;-72
2022/12/14 04:44:41;;;;;;;5.63;2.75;;;0.70;93.10;;;;;;5027039;28;20084;-71
2022/12/14 04:47:10;;;;;;;5.65;2.63;;;0.70;93.40;;;;;;5035909;28;20042;-71
2022/12/14 04:49:59;;;;;;;6.22;2.88;;;0.60;93.40;;;;;;5031800;28;20029;-71
2022/12/14 04:52:34;;;;;;;5.30;2.70;;;0.50;93.30;;;;;;5007657;28;20029;-72
2022/12/14 04:55:21;;;;;;;6.57;3.40;;;0.50;93.40;;;;;;5044562;28;20561;-70
2022/12/14 04:58:10;;;;;;;10.55;3.20;;;0.50;93.70;;;;;;5033186;28;20033;-71
2022/12/14 05:00:43;;;;;;;6.40;3.22;;;0.50;93.80;;;;;;5034178;28;20037;-70
2022/12/14 05:03:09;;;;;;;8.95;3.25;;;0.40;93.80;;;;;;5023548;28;20037;-70
2022/12/14 05:06:15;;;;;;;6.40;3.10;;;0.30;93.30;;;;;;5021080;28;20041;-71
2022/12/14 05:09:01;;;;;;;6.05;3.03;;;0.40;93.60;;;;;;4974208;28;20049;-71
2022/12/14 05:11:33;;;;;;;7.45;4.03;;;0.30;93.50;;;;;;5026083;28;20056;-70
2022/12/14 05:14:01;;;;;;;8.25;3.92;;;0.30;94.20;;;;;;5034123;28;20054;-70
2022/12/14 05:16:27;;;;;;;9.90;4.20;;;0.20;94.00;;;;;;5027358;28;20341;-69
2022/12/14 05:18:53;;;;;;;7.95;4.05;;;0.20;94.00;;;;;;5027438;28;20037;-69
2022/12/14 05:24:03;;;;;;;7.23;3.73;;;0.20;94.30;;;;;;5041501;28;20166;-69
2022/12/14 05:26:29;;;;;;;7.68;3.50;;;0.20;94.10;;;;;;5024302;28;20026;-69
2022/12/14 05:28:55;;;;;;;7.05;3.00;;;0.30;93.90;;;;;;5034198;28;20485;-69
2022/12/14 05:31:22;;;;;;;5.57;3.40;;;0.40;93.50;;;;;;5025962;28;20037;-69
2022/12/14 05:33:47;;;;;;;10.18;3.45;;;0.60;92.80;;;;;;5032799;28;20029;-71
2022/12/14 05:36:13;;;;;;;6.78;3.03;;;0.60;93.10;;;;;;5026196;28;20032;-69
2022/12/14 05:38:38;;;;;;;11.57;3.25;;;0.60;93.20;;;;;;5024991;28;20036;-69
2022/12/14 05:41:04;;;;;;;10.13;3.05;;;0.60;92.80;;;;;;5023677;28;20042;-69
2022/12/14 05:43:30;;;;;;;6.72;3.33;;;0.60;92.40;;;;;;5036144;28;20474;-69
2022/12/14 05:46:03;;;;;;;6.28;3.50;;;0.70;92.40;;;;;;5026288;28;20029;-69
2022/12/14 05:48:29;;;;;;;7.22;2.58;;;0.70;92.00;;;;;;5028782;28;20482;-70
2022/12/14 05:51:02;;;;;;;7.70;3.00;;;0.70;92.40;;;;;;5025337;28;20099;-69
2022/12/14 05:53:28;;;;;;;8.05;3.95;;;0.70;92.50;;;;;;5032187;28;20115;-69
2022/12/14 05:55:54;;;;;;;10.02;4.40;;;0.60;93.20;;;;;;5029006;28;20163;-70
2022/12/14 05:58:19;;;;;;;9.00;3.78;;;0.40;93.40;;;;;;5022477;28;20652;-69
2022/12/14 06:00:45;;;;;;;8.60;2.83;;;0.30;93.30;;;;;;5029777;28;20041;-69
2022/12/14 06:03:11;;;;;;;7.88;3.85;;;0.50;92.30;;;;;;5029755;28;20032;-69
2022/12/14 06:05:36;;;;;;;8.93;3.15;;;0.50;93.30;;;;;;5029798;28;20450;-69
2022/12/14 06:08:02;;;;;;;6.13;2.90;;;0.60;92.10;;;;;;5031100;28;20617;-69
2022/12/14 06:10:27;;;;;;;9.15;3.30;;;0.60;92.10;;;;;;5041500;28;20040;-69
2022/12/14 06:12:53;;;;;;;10.90;3.22;;;0.60;92.70;;;;;;5033788;28;20943;-69
2022/12/14 06:15:19;;;;;;;7.20;3.15;;;0.70;92.20;;;;;;5035401;28;20461;-70
2022/12/14 06:17:45;;;;;;;5.97;2.60;;;0.70;92.20;;;;;;5033548;28;20021;-69
2022/12/14 06:20:12;;;;;;;4.57;2.70;;;0.70;92.20;;;;;;5031460;28;20092;-69
2022/12/14 06:22:39;;;;;;;6.45;2.67;;;0.70;92.30;;;;;;5036977;28;20467;-70
2022/12/14 06:25:05;;;;;;;8.13;3.10;;;0.80;92.70;;;;;;5035895;28;20077;-69
2022/12/14 06:27:31;;;;;;;10.27;3.72;;;0.50;93.40;;;;;;5020698;28;20025;-69
2022/12/14 06:29:57;;;;;;;7.75;4.28;;;0.60;93.00;;;;;;5026812;28;20032;-69
2022/12/14 06:32:23;;;;;;;7.35;4.10;;;0.50;94.00;;;;;;5027543;28;20233;-69
2022/12/14 06:34:49;;;;;;;7.40;3.88;;;0.40;93.40;;;;;;5029518;28;20027;-69
2022/12/14 06:37:15;;;;;;;9.00;4.28;;;0.30;93.70;;;;;;5036116;28;20033;-69
2022/12/14 06:39:40;;;;;;;11.63;6.18;;;0.40;94.00;;;;;;5034461;28;20036;-69
2022/12/14 06:42:06;;;;;;;15.57;5.13;;;0.40;94.70;;;;;;5020610;28;20168;-69
2022/12/14 06:44:32;;;;;;;9.57;5.47;;;0.20;94.80;;;;;;5023478;28;20064;-69
2022/12/14 06:46:58;;;;;;;10.15;5.28;;;0.20;94.40;;;;;;5032531;28;20124;-69
2022/12/14 06:49:23;;;;;;;10.38;5.18;;;0.20;94.50;;;;;;5033860;28;20083;-69
2022/12/14 06:51:49;;;;;;;7.00;3.83;;;0.10;94.10;;;;;;5024019;28;20467;-70
2022/12/14 06:54:16;;;;;;;6.95;3.85;;;0.10;94.00;;;;;;5034911;28;20032;-71
2022/12/14 06:56:44;;;;;;;11.60;4.40;;;0.10;93.90;;;;;;5031479;28;20029;-70
2022/12/14 06:59:10;;;;;;;8.88;5.68;;;0.10;94.10;;;;;;5037052;28;20033;-70
2022/12/14 07:01:37;;;;;;;7.68;4.47;;;0.20;94.60;;;;;;5033225;28;20049;-70
2022/12/14 07:04:03;;;;;;;9.38;4.82;;;0.20;94.80;;;;;;5028285;28;20081;-70
2022/12/14 07:06:35;;;;;;;5.78;3.20;;;0.30;95.00;;;;;;5033527;28;20025;-70
2022/12/14 07:09:02;;;;;;;7.22;3.50;;;0.40;93.70;;;;;;5031397;28;20030;-71
2022/12/14 07:11:29;;;;;;;9.15;4.15;;;0.50;94.60;;;;;;5019894;28;20431;-70
2022/12/14 07:13:55;;;;;;;8.88;4.43;;;0.30;95.20;;;;;;5032941;28;20511;-70
2022/12/14 07:16:26;;;;;;;9.93;4.70;;;0.20;95.10;;;;;;5033327;28;20447;-70
2022/12/14 07:18:53;;;;;;;12.40;5.57;;;0.20;94.70;;;;;;5038327;28;20037;-71
2022/12/14 07:21:19;;;;;;;12.38;5.90;;;0.30;94.90;;;;;;5024892;28;20030;-70
2022/12/14 07:23:47;;;;;;;11.25;5.07;;;0.30;95.10;;;;;;5037107;28;20036;-72
2022/12/14 07:26:14;;;;;;;8.85;4.68;;;0.30;95.10;;;;;;5029331;28;20013;-71
2022/12/14 07:28:40;;;;;;;9.02;5.18;;;0.30;95.30;;;;;;5030330;28;20035;-71
2022/12/14 07:31:10;;;;;;;7.53;3.95;;;0.30;94.80;;;;;;5034830;28;20072;-71
2022/12/14 07:33:36;;;;;;;8.88;3.92;;;0.40;94.60;;;;;;5035662;28;20028;-70
2022/12/14 07:36:04;;;;;;;10.85;4.10;;;0.40;94.40;;;;;;5029258;28;20103;-71
2022/12/14 07:38:30;;;;;;;8.80;4.60;;;0.40;94.80;;;;;;5021828;28;20910;-70
2022/12/14 07:41:02;;;;;;;9.32;4.50;;;0.30;94.80;;;;;;5036165;28;20227;-68
2022/12/14 07:43:27;;;;;;;9.32;4.88;;;0.40;94.90;;;;;;5033453;28;20029;-68
2022/12/14 07:45:57;;;;;;;9.13;4.75;;;0.40;94.80;;;;;;5026290;28;20045;-69
2022/12/14 07:48:22;;;;;;;11.27;4.35;;;0.60;95.30;;;;;;5027785;28;20018;-69
2022/12/14 07:50:48;;;;;;;8.73;4.53;;;0.50;95.30;;;;;;5031752;28;20962;-68
2022/12/14 07:53:14;;;;;;;8.93;4.05;;;0.60;94.90;;;;;;5032539;28;20037;-70
2022/12/14 07:55:39;;;;;;;10.30;4.72;;;0.60;94.80;;;;;;5036095;28;20025;-68
2022/12/14 07:58:05;;;;;;;9.23;4.85;;;0.60;94.90;;;;;;5029839;28;20743;-68
2022/12/14 08:00:30;;;;;;;13.57;5.25;;;0.60;95.00;;;;;;5026114;28;20029;-68
2022/12/14 08:02:56;;;;;;;8.07;4.32;;;0.50;95.30;;;;;;5025616;28;20033;-68
2022/12/14 08:05:22;;;;;;;9.65;4.82;;;0.40;95.30;;;;;;5031259;28;20405;-68
2022/12/14 08:07:47;;;;;;;7.68;4.10;;;0.50;95.10;;;;;;5033075;28;20061;-68
2022/12/14 08:10:13;;;;;;;9.52;4.45;;;0.40;94.90;;;;;;5027529;28;20124;-68
2022/12/14 08:12:38;;;;;;;13.38;4.75;;;0.50;95.30;;;;;;5024937;28;20102;-68
2022/12/14 08:15:05;;;;;;;11.13;4.20;;;0.60;94.70;;;;;;5025085;28;20513;-69
2022/12/14 08:17:31;;;;;;;10.88;4.07;;;0.60;94.60;;;;;;5032645;28;20048;-68
2022/12/14 08:19:57;;;;;;;9.68;4.32;;;0.60;94.40;;;;;;5029256;28;20033;-68
2022/12/14 08:22:22;;;;;;;7.82;4.25;;;0.60;94.40;;;;;;5029601;28;20086;-68
2022/12/14 08:24:48;;;;;;;20.75;10.00;;;0.70;94.30;;;;;;5030944;28;20120;-68
2022/12/14 08:27:13;;;;;;;11.32;6.05;;;0.70;94.70;;;;;;5030936;28;20128;-68
2022/12/14 08:29:39;;;;;;;11.07;4.15;;;0.70;95.00;;;;;;5032768;28;20548;-68
2022/12/14 08:32:05;;;;;;;8.20;4.28;;;0.50;95.30;;;;;;5025032;28;20033;-68
2022/12/14 08:34:30;;;;;;;12.13;4.75;;;0.60;94.90;;;;;;5031543;28;20078;-69
2022/12/14 08:36:56;;;;;;;11.88;5.22;;;0.60;94.70;;;;;;5034531;28;20037;-68
2022/12/14 08:39:22;;;;;;;11.07;5.28;;;0.70;94.50;;;;;;5031248;28;20506;-69
2022/12/14 08:41:47;;;;;;;8.20;3.78;;;0.70;94.50;;;;;;5031965;28;20100;-68
2022/12/14 08:44:15;;;;;;;8.27;4.28;;;0.80;94.10;;;;;;5028337;28;20557;-70
2022/12/14 08:46:41;;;;;;;8.50;4.63;;;0.80;94.00;;;;;;5026799;28;20045;-69
2022/12/14 08:49:07;;;;;;;11.25;4.85;;;0.70;94.30;;;;;;5030914;28;20086;-70
2022/12/14 08:51:38;;;;;;;7.55;4.18;;;0.90;94.00;;;;;;5035714;28;20112;-69
2022/12/14 08:54:04;;;;;;;10.90;5.57;;;0.90;94.00;;;;;;5032549;28;20037;-69
2022/12/14 08:56:30;;;;;;;10.65;4.82;;;1.00;94.40;;;;;;5041415;28;20036;-69
2022/12/14 08:58:56;;;;;;;11.40;5.25;;;1.10;94.50;;;;;;5033453;28;20025;-70
2022/12/14 09:01:24;;;;;;;8.48;4.70;;;1.10;94.50;;;;;;5039694;28;20028;-69
2022/12/14 09:03:49;;;;;;;12.27;5.65;;;1.10;94.50;;;;;;5037700;28;20486;-69
2022/12/14 09:06:22;;;;;;;11.77;4.85;;;1.00;94.80;;;;;;5043326;28;20039;-69
2022/12/14 09:08:48;;;;;;;13.00;5.30;;;1.10;95.10;;;;;;5037900;28;20036;-69
2022/12/14 09:11:16;;;;;;;10.73;5.22;;;1.30;95.00;;;;;;5028341;28;20471;-69
2022/12/14 09:13:43;;;;;;;11.00;5.28;;;1.40;94.50;;;;;;5043697;28;20117;-70
2022/12/14 09:16:15;;;;;;;11.27;5.28;;;1.30;94.30;;;;;;5041271;28;20069;-69
2022/12/14 09:18:41;;;;;;;9.80;5.25;;;1.20;93.90;;;;;;5032487;28;20029;-68
2022/12/14 09:21:07;;;;;;;9.02;4.97;;;1.20;94.00;;;;;;5042930;28;20386;-70
2022/12/14 09:23:33;;;;;;;13.55;5.47;;;1.30;94.10;;;;;;5039720;28;20067;-69
2022/12/14 09:26:12;;;;;;;9.35;5.10;;;1.20;94.30;;;;;;5046513;28;20155;-69
2022/12/14 09:28:40;;;;;;;14.27;6.63;;;1.30;94.20;;;;;;5035431;28;20025;-70
2022/12/14 09:31:09;;;;;;;9.50;5.47;;;1.40;94.40;;;;;;5037797;28;20087;-70
2022/12/14 09:33:35;;;;;;;8.77;5.00;;;1.30;94.30;;;;;;5044116;28;20028;-69
2022/12/14 09:36:01;;;;;;;12.73;5.18;;;1.30;94.00;;;;;;5045115;28;20036;-69
2022/12/14 09:38:29;;;;;;;11.20;5.22;;;1.40;93.80;;;;;;5046834;28;20024;-70
2022/12/14 09:41:02;;;;;;;9.68;5.88;;;1.40;93.50;;;;;;5041335;28;20116;-69
2022/12/14 09:43:33;;;;;;;10.85;6.18;;;1.50;93.70;;;;;;5042307;28;20032;-70
2022/12/14 09:46:16;;;;;;;12.82;4.80;;;1.70;94.10;;;;;;5045113;28;20029;-70
2022/12/14 09:48:42;;;;;;;8.93;4.03;;;1.70;93.80;;;;;;5033597;28;20075;-70
2022/12/14 09:51:15;;;;;;;10.40;5.03;;;1.90;94.80;;;;;;5031054;28;20081;-71
2022/12/14 09:53:43;;;;;;;9.40;4.30;;;2.10;93.70;;;;;;5026296;28;20029;-70
2022/12/14 09:56:19;;;;;;;10.27;4.93;;;2.00;93.50;;;;;;5029243;28;20049;-69
2022/12/14 09:58:55;;;;;;;8.45;4.53;;;2.00;93.30;;;;;;5026809;28;20044;-70
2022/12/14 10:01:23;;;;;;;13.75;4.90;;;2.10;93.20;;;;;;5024692;28;20112;-69
2022/12/14 10:03:52;;;;;;;13.65;5.30;;;2.30;93.40;;;;;;5032521;28;20370;-70
2022/12/14 10:06:29;;;;;;;15.35;5.63;;;2.30;93.10;;;;;;5028227;28;20026;-69
2022/12/14 10:09:15;;;;;;;10.70;5.68;;;2.20;93.80;;;;;;5029772;28;20478;-70
2022/12/14 10:11:50;;;;;;;10.77;5.13;;;2.10;93.80;;;;;;5022419;28;20045;-69
2022/12/14 10:14:34;;;;;;;11.57;5.00;;;2.10;93.80;;;;;;5026218;28;20052;-69
2022/12/14 10:17:32;;;;;;;11.50;5.82;;;2.10;94.20;;;;;;5024056;28;20698;-69
2022/12/14 10:20:20;;;;;;;18.15;5.78;;;2.10;93.80;;;;;;5028620;28;20060;-70
2022/12/14 10:22:51;;;;;;;12.82;6.13;;;2.10;93.90;;;;;;5028993;28;20029;-70
2022/12/14 10:25:30;;;;;;;12.68;6.25;;;2.20;93.50;;;;;;5023845;28;20048;-70
2022/12/14 10:28:06;;;;;;;10.10;6.03;;;2.10;93.60;;;;;;5029721;28;20025;-69
2022/12/14 10:30:34;;;;;;;23.52;6.57;;;2.00;93.60;;;;;;5037686;28;20036;-69
2022/12/14 10:33:15;;;;;;;16.30;6.93;;;2.20;94.40;;;;;;5030285;28;20053;-69
2022/12/14 10:35:51;;;;;;;10.07;6.15;;;2.10;93.70;;;;;;5012339;28;20081;-69
2022/12/14 10:38:23;;;;;;;10.68;5.72;;;2.30;93.80;;;;;;5030310;28;20104;-70
2022/12/14 10:40:54;;;;;;;9.77;5.88;;;2.20;93.70;;;;;;5043222;28;20025;-71
2022/12/14 10:43:32;;;;;;;9.55;4.78;;;2.30;93.10;;;;;;5028455;28;20514;-70
2022/12/14 10:46:26;;;;;;;13.52;5.93;;;2.30;93.30;;;;;;5029334;28;20035;-70
2022/12/14 10:49:03;;;;;;;14.93;5.07;;;2.30;93.30;;;;;;5035216;28;20083;-70
2022/12/14 10:51:45;;;;;;;11.75;5.80;;;2.50;93.60;;;;;;5036187;28;20087;-69
2022/12/14 10:54:27;;;;;;;9.63;4.78;;;2.40;93.60;;;;;;5035454;28;20037;-70
2022/12/14 10:56:53;;;;;;;13.85;5.20;;;2.50;93.40;;;;;;5034566;28;20119;-70
2022/12/14 10:59:25;;;;;;;9.82;5.30;;;2.50;93.00;;;;;;5035602;28;20029;-70
2022/12/14 11:02:14;;;;;;;10.82;5.22;;;2.40;93.00;;;;;;5030797;28;20067;-70
2022/12/14 11:04:56;;;;;;;14.75;6.22;;;2.50;93.00;;;;;;5032624;28;20556;-69
2022/12/14 11:07:48;;;;;;;16.00;6.55;;;2.60;93.10;;;;;;5032476;28;20037;-70
2022/12/14 11:10:21;;;;;;;14.35;5.80;;;2.50;93.30;;;;;;5033787;28;20422;-70
2022/12/14 11:13:26;;;;;;;11.43;5.60;;;2.50;93.20;;;;;;5028453;28;20040;-69
2022/12/14 11:15:52;;;;;;;10.73;5.78;;;2.60;92.80;;;;;;5006122;28;20068;-69
2022/12/14 11:18:23;;;;;;;11.70;5.35;;;2.50;93.20;;;;;;5035246;28;20025;-70
2022/12/14 11:20:53;;;;;;;14.32;5.93;;;2.60;93.30;;;;;;5032096;28;20027;-69
2022/12/14 11:23:24;;;;;;;10.70;5.97;;;2.60;93.20;;;;;;5038826;28;20517;-70
2022/12/14 11:25:54;;;;;;;15.68;5.93;;;2.60;93.20;;;;;;5042759;28;20110;-69
2022/12/14 11:28:30;;;;;;;25.20;11.85;;;2.70;93.20;;;;;;5026927;28;20506;-70
2022/12/14 11:31:10;;;;;;;15.30;7.47;;;2.70;93.30;;;;;;5033396;28;20361;-70
2022/12/14 11:33:44;;;;;;;12.57;6.05;;;2.70;93.20;;;;;;5030297;28;20107;-70
2022/12/14 11:36:22;;;;;;;15.43;6.35;;;2.60;93.10;;;;;;5035138;28;20018;-70
2022/12/14 11:38:59;;;;;;;14.07;6.82;;;2.60;93.50;;;;;;5025432;28;20036;-70
2022/12/14 11:41:37;;;;;;;13.70;6.50;;;2.60;93.50;;;;;;5039558;28;20037;-71
2022/12/14 11:44:25;;;;;;;13.20;5.90;;;2.60;93.40;;;;;;5030367;28;20108;-69
2022/12/14 11:46:56;;;;;;;14.60;6.28;;;2.70;93.10;;;;;;5025912;28;20093;-70
2022/12/14 11:49:28;;;;;;;12.82;6.47;;;2.70;93.60;;;;;;5031111;28;20029;-70
2022/12/14 11:51:59;;;;;;;9.25;5.07;;;2.70;93.60;;;;;;5035651;28;20024;-69
2022/12/14 11:54:25;;;;;;;13.80;5.13;;;2.70;93.50;;;;;;5024627;28;20079;-70
2022/12/14 11:56:54;;;;;;;10.45;4.85;;;2.70;93.20;;;;;;5035037;28;20465;-70
2022/12/14 11:59:21;;;;;;;10.85;5.25;;;2.70;93.30;;;;;;5030666;28;20026;-70
2022/12/14 12:01:46;;;;;;;9.02;5.07;;;2.70;93.00;;;;;;5036453;28;20029;-70
2022/12/14 12:04:15;;;;;;;9.75;5.28;;;2.70;92.90;;;;;;5028303;28;20045;-70
2022/12/14 12:06:41;;;;;;;11.48;5.40;;;2.80;93.40;;;;;;5037438;28;20032;-70
2022/12/14 12:09:29;;;;;;;9.77;6.20;;;2.80;93.20;;;;;;5031805;28;20519;-70
2022/12/14 12:11:55;;;;;;;10.85;5.28;;;2.80;93.00;;;;;;5026334;28;20036;-70
2022/12/14 12:14:36;;;;;;;10.68;5.03;;;2.80;93.60;;;;;;5032568;28;20029;-70
2022/12/14 12:17:36;;;;;;;9.70;4.30;;;2.90;93.10;;;;;;5026115;28;20057;-69
2022/12/14 12:20:02;;;;;;;11.50;5.50;;;2.90;92.80;;;;;;5028725;28;20663;-70
2022/12/14 12:22:30;;;;;;;8.73;5.07;;;2.80;92.90;;;;;;5033598;28;20036;-69
2022/12/14 12:25:00;;;;;;;10.07;4.25;;;2.80;93.00;;;;;;5027257;28;20033;-70
2022/12/14 12:27:28;;;;;;;8.50;4.18;;;2.90;92.80;;;;;;5040910;28;20037;-70
2022/12/14 12:29:56;;;;;;;7.93;3.83;;;3.00;92.70;;;;;;5044527;28;20032;-70
2022/12/14 12:32:50;;;;;;;7.38;4.50;;;3.00;93.00;;;;;;5030720;28;20033;-70
2022/12/14 12:35:49;;;;;;;13.02;7.95;;;3.00;93.20;;;;;;5026439;28;20663;-70
2022/12/14 12:38:22;;;;;;;15.15;7.03;;;3.20;93.40;;;;;;5029747;28;20079;-69
2022/12/14 12:40:51;;;;;;;14.45;6.05;;;3.10;93.80;;;;;;5023278;28;20035;-70
2022/12/14 12:43:33;;;;;;;18.17;10.48;;;3.10;94.00;;;;;;5032702;28;20879;-70
2022/12/14 12:46:10;;;;;;;13.77;7.95;;;3.20;93.90;;;;;;5011994;28;20068;-70
2022/12/14 12:48:38;;;;;;;18.15;8.15;;;3.10;94.10;;;;;;5022637;28;20045;-70
2022/12/14 12:51:11;;;;;;;13.85;7.32;;;2.90;94.50;;;;;;5031389;28;20052;-70
2022/12/14 12:53:43;;;;;;;11.73;6.25;;;2.90;94.50;;;;;;5024083;28;20127;-69
2022/12/14 12:56:34;;;;;;;21.65;8.57;;;2.90;94.40;;;;;;5029636;28;20029;-69
2022/12/14 12:59:01;;;;;;;19.30;8.15;;;2.80;94.30;;;;;;5022729;28;20072;-70
2022/12/14 13:01:39;;;;;;;19.75;9.73;;;2.80;93.90;;;;;;5028880;28;20037;-70
2022/12/14 13:04:10;;;;;;;16.85;8.27;;;3.00;94.60;;;;;;5031676;28;20119;-69
2022/12/14 13:06:51;;;;;;;11.75;6.78;;;3.10;94.40;;;;;;5023496;28;20029;-70
2022/12/14 13:09:40;;;;;;;17.17;7.07;;;3.10;93.80;;;;;;5028766;28;20025;-70
2022/12/14 13:12:28;;;;;;;13.43;7.13;;;3.00;93.80;;;;;;5022725;28;20122;-70
2022/12/14 13:14:56;;;;;;;11.00;6.03;;;3.00;93.90;;;;;;5021395;28;20562;-71
2022/12/14 13:17:33;;;;;;;11.15;6.00;;;3.00;93.70;;;;;;5027583;28;20068;-71
2022/12/14 13:20:02;;;;;;;17.83;7.18;;;3.00;93.90;;;;;;5025268;28;20048;-71
2022/12/14 13:22:31;;;;;;;12.68;7.07;;;3.10;94.10;;;;;;5022154;28;20095;-71
2022/12/14 13:25:01;;;;;;;11.63;6.38;;;3.10;94.40;;;;;;5027818;28;20045;-71
2022/12/14 13:27:33;;;;;;;14.57;6.78;;;2.90;94.50;;;;;;5030554;28;20093;-71
2022/12/14 13:30:12;;;;;;;15.40;7.22;;;2.80;94.50;;;;;;5031557;28;20390;-70
2022/12/14 13:33:07;;;;;;;16.63;7.30;;;3.00;94.00;;;;;;5029935;28;20663;-70
2022/12/14 13:35:42;;;;;;;14.27;7.28;;;3.00;94.20;;;;;;5030267;28;20036;-71